Neptune City, New Jersey
Current Conditions -  °F | °C
As of 8:55 AM on Thursday 30 Oct 2014 (Local Time) from KBLM Reporting Station
Overcast Overcast  
Wind Chill: 42°   Ceiling: 300
Heat Index: 46°   Visibility: 4mi
Dew Point: 39°   Wind: 8mph
Humidity: 76%   Direction: 300°WNW
Pressure: 30"   Gusts: NA
Location:  40.2205°N, 74.0818°W
Report Text: KBLM 301255Z AUTO 30007KT 4SM OVC003 08/04 A3000 RMK AO1
Loading
Personal Weather Stations






























Interactive Weather Map
Tropical Storm Tracking
New forecast layout! Learn more

10-Day Weather Forecast

Advertisements
Track Severe Weather on mobile